Saint Inigoes, Maryland
Current Conditions -  °F | °C
As of 12:53 PM on Saturday 25 Oct 2014 (Local Time) from KNUI Reporting Station
Clear Clear  
Wind Chill: 65°   Ceiling: Unl
Heat Index: 65°   Visibility: 10mi
Dew Point: 42°   Wind: 8mph
Humidity: 43%   Direction: 230°SW
Pressure: 29.9"   Gusts: NA
Location:  38.17°N, 76.41°W
Report Text: KNUI 251653Z AUTO 23007KT 10SM CLR 18/06 A2990 RMK AO2 SLP124 T01830056 $
Loading
Personal Weather Stations






























Interactive Weather Map
Tropical Storm Tracking
New forecast layout! Learn more

10-Day Weather Forecast

Advertisements
Track Severe Weather on mobile